sensor_id;sensor_type;location;lat;lon;timestamp;pressure;altitude;pressure_sealevel;temperature;humidity
38054;BME280;23859;50.672;7.164;2022-12-07T00:01:15;100907.69;;;5.44;100.00
38054;BME280;23859;50.672;7.164;2022-12-07T00:03:43;100912.00;;;5.45;100.00
38054;BME280;23859;50.672;7.164;2022-12-07T00:06:12;100901.09;;;5.51;100.00
38054;BME280;23859;50.672;7.164;2022-12-07T00:08:39;100901.25;;;5.48;100.00
38054;BME280;23859;50.672;7.164;2022-12-07T00:11:07;100904.66;;;5.50;100.00
38054;BME280;23859;50.672;7.164;2022-12-07T00:13:34;100909.75;;;5.53;100.00
38054;BME280;23859;50.672;7.164;2022-12-07T00:16:17;100902.41;;;5.58;100.00
38054;BME280;23859;50.672;7.164;2022-12-07T00:18:44;100903.34;;;5.43;100.00
38054;BME280;23859;50.672;7.164;2022-12-07T00:21:16;100902.41;;;5.44;100.00
38054;BME280;23859;50.672;7.164;2022-12-07T00:23:44;100908.72;;;5.42;100.00
38054;BME280;23859;50.672;7.164;2022-12-07T00:26:19;100894.50;;;5.44;100.00
38054;BME280;23859;50.672;7.164;2022-12-07T00:28:47;100891.97;;;5.43;100.00
38054;BME280;23859;50.672;7.164;2022-12-07T00:31:15;100891.13;;;5.42;100.00
38054;BME280;23859;50.672;7.164;2022-12-07T00:33:41;100895.25;;;5.46;100.00
38054;BME280;23859;50.672;7.164;2022-12-07T00:36:10;100887.09;;;5.37;100.00
38054;BME280;23859;50.672;7.164;2022-12-07T00:38:37;100891.53;;;5.36;100.00
38054;BME280;23859;50.672;7.164;2022-12-07T00:41:06;100887.38;;;5.32;100.00
38054;BME280;23859;50.672;7.164;2022-12-07T00:43:33;100883.91;;;5.32;100.00
38054;BME280;23859;50.672;7.164;2022-12-07T00:45:59;100885.22;;;5.39;100.00
38054;BME280;23859;50.672;7.164;2022-12-07T00:48:25;100883.25;;;5.28;100.00
38054;BME280;23859;50.672;7.164;2022-12-07T00:50:52;100882.50;;;5.27;100.00
38054;BME280;23859;50.672;7.164;2022-12-07T00:53:18;100873.63;;;5.27;100.00
38054;BME280;23859;50.672;7.164;2022-12-07T00:55:45;100877.78;;;5.31;100.00
38054;BME280;23859;50.672;7.164;2022-12-07T00:58:11;100868.59;;;5.25;100.00
38054;BME280;23859;50.672;7.164;2022-12-07T01:00:39;100871.97;;;5.27;100.00
38054;BME280;23859;50.672;7.164;2022-12-07T01:03:07;100865.00;;;5.26;100.00
38054;BME280;23859;50.672;7.164;2022-12-07T01:05:34;100871.31;;;5.23;100.00
38054;BME280;23859;50.672;7.164;2022-12-07T01:08:00;100871.00;;;5.27;100.00
38054;BME280;23859;50.672;7.164;2022-12-07T01:10:26;100880.44;;;5.31;100.00
38054;BME280;23859;50.672;7.164;2022-12-07T01:12:52;100874.03;;;5.35;100.00
38054;BME280;23859;50.672;7.164;2022-12-07T01:15:19;100867.06;;;5.34;100.00
38054;BME280;23859;50.672;7.164;2022-12-07T01:17:45;100864.69;;;5.30;100.00
38054;BME280;23859;50.672;7.164;2022-12-07T01:20:11;100861.22;;;5.29;100.00
38054;BME280;23859;50.672;7.164;2022-12-07T01:22:39;100865.00;;;5.26;100.00
38054;BME280;23859;50.672;7.164;2022-12-07T01:25:07;100868.38;;;5.27;100.00
38054;BME280;23859;50.672;7.164;2022-12-07T01:27:34;100873.38;;;5.32;100.00
38054;BME280;23859;50.672;7.164;2022-12-07T01:30:03;100875.25;;;5.30;100.00
38054;BME280;23859;50.672;7.164;2022-12-07T01:32:30;100879.56;;;5.45;100.00
38054;BME280;23859;50.672;7.164;2022-12-07T01:34:56;100873.63;;;5.41;100.00
38054;BME280;23859;50.672;7.164;2022-12-07T01:37:22;100879.47;;;5.46;100.00
38054;BME280;23859;50.672;7.164;2022-12-07T01:39:52;100874.72;;;5.51;100.00
38054;BME280;23859;50.672;7.164;2022-12-07T01:42:18;100874.50;;;5.68;100.00
38054;BME280;23859;50.672;7.164;2022-12-07T01:47:42;100873.09;;;5.63;100.00
38054;BME280;23859;50.672;7.164;2022-12-07T01:50:09;100871.50;;;5.60;100.00
38054;BME280;23859;50.672;7.164;2022-12-07T01:52:36;100874.13;;;5.60;100.00
38054;BME280;23859;50.672;7.164;2022-12-07T01:55:07;100859.91;;;5.63;100.00
38054;BME280;23859;50.672;7.164;2022-12-07T01:57:39;100860.66;;;5.65;100.00
38054;BME280;23859;50.672;7.164;2022-12-07T02:00:07;100856.16;;;5.67;100.00
38054;BME280;23859;50.672;7.164;2022-12-07T02:02:41;100854.44;;;5.80;100.00
38054;BME280;23859;50.672;7.164;2022-12-07T02:05:09;100857.94;;;5.80;100.00
38054;BME280;23859;50.672;7.164;2022-12-07T02:07:36;100852.84;;;5.77;100.00
38054;BME280;23859;50.672;7.164;2022-12-07T02:10:33;100849.25;;;5.78;100.00
38054;BME280;23859;50.672;7.164;2022-12-07T02:19:04;100842.53;;;5.87;100.00
38054;BME280;23859;50.672;7.164;2022-12-07T02:21:48;100840.16;;;5.96;100.00
38054;BME280;23859;50.672;7.164;2022-12-07T02:24:32;100835.94;;;5.94;100.00
38054;BME280;23859;50.672;7.164;2022-12-07T02:27:33;100840.78;;;5.99;100.00
38054;BME280;23859;50.672;7.164;2022-12-07T02:30:13;100842.69;;;6.10;100.00
38054;BME280;23859;50.672;7.164;2022-12-07T02:32:57;100832.47;;;6.18;100.00
38054;BME280;23859;50.672;7.164;2022-12-07T02:35:44;100830.69;;;6.06;100.00
38054;BME280;23859;50.672;7.164;2022-12-07T02:38:18;100827.69;;;5.98;100.00
38054;BME280;23859;50.672;7.164;2022-12-07T02:41:00;100837.44;;;6.10;100.00
38054;BME280;23859;50.672;7.164;2022-12-07T02:43:38;100839.41;;;6.06;100.00
38054;BME280;23859;50.672;7.164;2022-12-07T02:46:10;100841.09;;;5.95;100.00
38054;BME280;23859;50.672;7.164;2022-12-07T02:48:39;100835.53;;;6.12;100.00
38054;BME280;23859;50.672;7.164;2022-12-07T02:51:06;100832.97;;;6.10;100.00
38054;BME280;23859;50.672;7.164;2022-12-07T02:53:34;100836.66;;;5.95;100.00
38054;BME280;23859;50.672;7.164;2022-12-07T03:02:58;100820.94;;;5.94;100.00
38054;BME280;23859;50.672;7.164;2022-12-07T03:05:14;100823.72;;;6.05;100.00
38054;BME280;23859;50.672;7.164;2022-12-07T03:07:52;100824.25;;;6.10;100.00
38054;BME280;23859;50.672;7.164;2022-12-07T03:10:28;100833.97;;;6.22;100.00
38054;BME280;23859;50.672;7.164;2022-12-07T03:18:30;100819.09;;;6.33;100.00
38054;BME280;23859;50.672;7.164;2022-12-07T03:21:01;100822.75;;;6.06;100.00
38054;BME280;23859;50.672;7.164;2022-12-07T03:23:31;100815.69;;;6.06;100.00
38054;BME280;23859;50.672;7.164;2022-12-07T03:26:00;100822.00;;;6.04;100.00
38054;BME280;23859;50.672;7.164;2022-12-07T03:28:32;100821.06;;;6.05;100.00
38054;BME280;23859;50.672;7.164;2022-12-07T03:31:27;100822.41;;;5.98;100.00
38054;BME280;23859;50.672;7.164;2022-12-07T03:34:14;100818.84;;;5.99;100.00
38054;BME280;23859;50.672;7.164;2022-12-07T03:36:53;100827.09;;;6.07;100.00
38054;BME280;23859;50.672;7.164;2022-12-07T03:39:32;100826.00;;;5.97;100.00
38054;BME280;23859;50.672;7.164;2022-12-07T03:42:00;100815.25;;;5.88;100.00
38054;BME280;23859;50.672;7.164;2022-12-07T03:44:29;100818.03;;;6.11;100.00
38054;BME280;23859;50.672;7.164;2022-12-07T03:47:00;100823.91;;;6.02;100.00
38054;BME280;23859;50.672;7.164;2022-12-07T03:49:32;100824.47;;;6.07;100.00
38054;BME280;23859;50.672;7.164;2022-12-07T03:54:46;100816.56;;;6.07;100.00
38054;BME280;23859;50.672;7.164;2022-12-07T03:57:14;100815.22;;;6.39;100.00
38054;BME280;23859;50.672;7.164;2022-12-07T03:59:42;100818.03;;;6.23;100.00
38054;BME280;23859;50.672;7.164;2022-12-07T04:02:08;100821.59;;;6.10;100.00
38054;BME280;23859;50.672;7.164;2022-12-07T04:04:36;100817.91;;;6.12;100.00
38054;BME280;23859;50.672;7.164;2022-12-07T04:07:03;100823.50;;;6.08;100.00
38054;BME280;23859;50.672;7.164;2022-12-07T04:09:29;100823.72;;;6.05;100.00
38054;BME280;23859;50.672;7.164;2022-12-07T04:11:55;100821.81;;;6.07;100.00
38054;BME280;23859;50.672;7.164;2022-12-07T04:14:21;100817.63;;;6.17;100.00
38054;BME280;23859;50.672;7.164;2022-12-07T04:16:52;100818.22;;;6.08;100.00
38054;BME280;23859;50.672;7.164;2022-12-07T04:19:20;100825.59;;;6.15;100.00
38054;BME280;23859;50.672;7.164;2022-12-07T04:21:48;100823.59;;;6.19;100.00
38054;BME280;23859;50.672;7.164;2022-12-07T04:24:15;100822.03;;;6.29;100.00
38054;BME280;23859;50.672;7.164;2022-12-07T04:26:42;100823.19;;;6.25;100.00
38054;BME280;23859;50.672;7.164;2022-12-07T04:29:08;100819.09;;;6.21;100.00
38054;BME280;23859;50.672;7.164;2022-12-07T04:31:35;100813.72;;;6.35;100.00
38054;BME280;23859;50.672;7.164;2022-12-07T04:34:02;100808.13;;;6.27;100.00
38054;BME280;23859;50.672;7.164;2022-12-07T04:36:29;100810.34;;;6.33;100.00
38054;BME280;23859;50.672;7.164;2022-12-07T04:38:55;100815.28;;;6.25;100.00
38054;BME280;23859;50.672;7.164;2022-12-07T04:41:22;100808.66;;;6.19;100.00
38054;BME280;23859;50.672;7.164;2022-12-07T04:43:58;100807.06;;;6.42;100.00
38054;BME280;23859;50.672;7.164;2022-12-07T04:46:25;100811.19;;;6.21;100.00
38054;BME280;23859;50.672;7.164;2022-12-07T04:48:53;100804.50;;;6.15;100.00
38054;BME280;23859;50.672;7.164;2022-12-07T04:51:22;100804.84;;;6.11;100.00
38054;BME280;23859;50.672;7.164;2022-12-07T04:53:49;100809.47;;;6.07;100.00
38054;BME280;23859;50.672;7.164;2022-12-07T04:56:16;100818.31;;;6.06;100.00
38054;BME280;23859;50.672;7.164;2022-12-07T04:58:44;100809.69;;;6.17;100.00
38054;BME280;23859;50.672;7.164;2022-12-07T05:01:10;100807.06;;;6.17;100.00
38054;BME280;23859;50.672;7.164;2022-12-07T05:03:37;100801.69;;;6.18;100.00
38054;BME280;23859;50.672;7.164;2022-12-07T05:06:04;100802.31;;;6.22;100.00
38054;BME280;23859;50.672;7.164;2022-12-07T05:08:30;100807.25;;;6.26;100.00
38054;BME280;23859;50.672;7.164;2022-12-07T05:10:56;100806.53;;;6.12;100.00
38054;BME280;23859;50.672;7.164;2022-12-07T05:13:22;100812.75;;;6.11;100.00
38054;BME280;23859;50.672;7.164;2022-12-07T05:15:48;100813.41;;;6.14;100.00
38054;BME280;23859;50.672;7.164;2022-12-07T05:18:15;100820.44;;;6.14;100.00
38054;BME280;23859;50.672;7.164;2022-12-07T05:20:42;100814.63;;;6.09;100.00
38054;BME280;23859;50.672;7.164;2022-12-07T05:23:08;100812.41;;;6.03;100.00
38054;BME280;23859;50.672;7.164;2022-12-07T05:25:34;100827.41;;;6.02;100.00
38054;BME280;23859;50.672;7.164;2022-12-07T05:28:01;100821.59;;;6.10;100.00
38054;BME280;23859;50.672;7.164;2022-12-07T05:30:27;100816.63;;;6.05;100.00
38054;BME280;23859;50.672;7.164;2022-12-07T05:32:53;100818.53;;;5.91;100.00
38054;BME280;23859;50.672;7.164;2022-12-07T05:35:19;100823.44;;;5.83;100.00
38054;BME280;23859;50.672;7.164;2022-12-07T05:37:45;100822.06;;;5.78;100.00
38054;BME280;23859;50.672;7.164;2022-12-07T05:40:12;100819.69;;;5.73;100.00
38054;BME280;23859;50.672;7.164;2022-12-07T05:42:39;100823.66;;;5.80;100.00
38054;BME280;23859;50.672;7.164;2022-12-07T05:45:05;100813.53;;;5.87;100.00
38054;BME280;23859;50.672;7.164;2022-12-07T05:47:32;100816.28;;;5.85;100.00
38054;BME280;23859;50.672;7.164;2022-12-07T05:49:58;100810.38;;;5.94;100.00
38054;BME280;23859;50.672;7.164;2022-12-07T05:52:24;100821.06;;;6.05;100.00
38054;BME280;23859;50.672;7.164;2022-12-07T05:54:50;100814.97;;;6.04;100.00
38054;BME280;23859;50.672;7.164;2022-12-07T05:57:16;100815.16;;;6.01;100.00
38054;BME280;23859;50.672;7.164;2022-12-07T05:59:42;100816.56;;;6.19;100.00
38054;BME280;23859;50.672;7.164;2022-12-07T06:02:11;100810.84;;;6.13;100.00
38054;BME280;23859;50.672;7.164;2022-12-07T06:04:44;100815.50;;;6.09;100.00
38054;BME280;23859;50.672;7.164;2022-12-07T06:07:12;100813.78;;;5.96;100.00
38054;BME280;23859;50.672;7.164;2022-12-07T06:09:39;100821.88;;;5.93;100.00
38054;BME280;23859;50.672;7.164;2022-12-07T06:12:06;100824.53;;;5.93;100.00
38054;BME280;23859;50.672;7.164;2022-12-07T06:14:51;100819.59;;;6.01;100.00
38054;BME280;23859;50.672;7.164;2022-12-07T06:17:17;100814.19;;;5.90;100.00
38054;BME280;23859;50.672;7.164;2022-12-07T06:19:43;100818.53;;;5.91;100.00
38054;BME280;23859;50.672;7.164;2022-12-07T06:22:09;100822.94;;;5.91;100.00
38054;BME280;23859;50.672;7.164;2022-12-07T06:24:37;100822.19;;;5.89;100.00
38054;BME280;23859;50.672;7.164;2022-12-07T06:27:03;100828.31;;;5.89;100.00
38054;BME280;23859;50.672;7.164;2022-12-07T06:29:30;100832.00;;;5.87;100.00
38054;BME280;23859;50.672;7.164;2022-12-07T06:31:56;100828.50;;;5.86;100.00
38054;BME280;23859;50.672;7.164;2022-12-07T06:34:24;100826.44;;;5.91;100.00
38054;BME280;23859;50.672;7.164;2022-12-07T06:36:51;100834.41;;;5.90;100.00
38054;BME280;23859;50.672;7.164;2022-12-07T06:39:21;100837.94;;;6.02;100.00
38054;BME280;23859;50.672;7.164;2022-12-07T06:41:47;100850.19;;;6.03;100.00
38054;BME280;23859;50.672;7.164;2022-12-07T06:44:14;100838.88;;;6.01;100.00
38054;BME280;23859;50.672;7.164;2022-12-07T06:46:40;100832.66;;;6.02;100.00
38054;BME280;23859;50.672;7.164;2022-12-07T06:49:06;100837.53;;;6.08;100.00
38054;BME280;23859;50.672;7.164;2022-12-07T06:51:33;100831.91;;;6.00;100.00
38054;BME280;23859;50.672;7.164;2022-12-07T06:54:01;100834.88;;;5.96;100.00
38054;BME280;23859;50.672;7.164;2022-12-07T06:56:27;100833.19;;;5.95;100.00
38054;BME280;23859;50.672;7.164;2022-12-07T06:58:54;100832.19;;;5.84;100.00
38054;BME280;23859;50.672;7.164;2022-12-07T07:01:20;100825.75;;;5.61;100.00
38054;BME280;23859;50.672;7.164;2022-12-07T07:03:47;100831.97;;;5.60;100.00
38054;BME280;23859;50.672;7.164;2022-12-07T07:06:13;100837.84;;;5.51;100.00
38054;BME280;23859;50.672;7.164;2022-12-07T07:08:40;100838.03;;;5.48;100.00
38054;BME280;23859;50.672;7.164;2022-12-07T07:11:07;100841.09;;;5.42;100.00
38054;BME280;23859;50.672;7.164;2022-12-07T07:13:34;100843.34;;;5.34;100.00
38054;BME280;23859;50.672;7.164;2022-12-07T07:16:00;100841.97;;;5.29;100.00
38054;BME280;23859;50.672;7.164;2022-12-07T07:18:26;100848.44;;;5.24;100.00
38054;BME280;23859;50.672;7.164;2022-12-07T07:20:52;100850.16;;;5.25;100.00
38054;BME280;23859;50.672;7.164;2022-12-07T07:23:20;100850.16;;;5.25;100.00
38054;BME280;23859;50.672;7.164;2022-12-07T07:25:47;100748.53;;;4.68;100.00
38054;BME280;23859;50.672;7.164;2022-12-07T07:28:13;100846.47;;;5.27;100.00
38054;BME280;23859;50.672;7.164;2022-12-07T07:30:40;100849.66;;;5.32;100.00
38054;BME280;23859;50.672;7.164;2022-12-07T07:33:06;100860.28;;;5.30;100.00
38054;BME280;23859;50.672;7.164;2022-12-07T07:35:33;100856.50;;;5.34;100.00
38054;BME280;23859;50.672;7.164;2022-12-07T07:38:00;100858.97;;;5.37;100.00
38054;BME280;23859;50.672;7.164;2022-12-07T07:40:27;100856.34;;;5.37;100.00
38054;BME280;23859;50.672;7.164;2022-12-07T07:42:57;100854.44;;;5.39;100.00
38054;BME280;23859;50.672;7.164;2022-12-07T07:45:25;100861.84;;;5.47;100.00
38054;BME280;23859;50.672;7.164;2022-12-07T07:47:51;100860.91;;;5.48;100.00
38054;BME280;23859;50.672;7.164;2022-12-07T07:50:18;100867.16;;;5.59;100.00
38054;BME280;23859;50.672;7.164;2022-12-07T07:52:45;100857.09;;;5.66;100.00
38054;BME280;23859;50.672;7.164;2022-12-07T07:55:12;100854.78;;;5.88;100.00
38054;BME280;23859;50.672;7.164;2022-12-07T07:57:39;100854.13;;;5.70;100.00
38054;BME280;23859;50.672;7.164;2022-12-07T08:00:08;100859.41;;;5.70;100.00
38054;BME280;23859;50.672;7.164;2022-12-07T08:02:35;100858.78;;;5.67;100.00
38054;BME280;23859;50.672;7.164;2022-12-07T08:05:01;100860.94;;;5.74;100.00
38054;BME280;23859;50.672;7.164;2022-12-07T08:07:27;100861.69;;;5.76;100.00
38054;BME280;23859;50.672;7.164;2022-12-07T08:09:54;100865.84;;;5.80;100.00
38054;BME280;23859;50.672;7.164;2022-12-07T08:12:20;100858.91;;;5.92;100.00
38054;BME280;23859;50.672;7.164;2022-12-07T08:14:46;100863.09;;;5.82;100.00
38054;BME280;23859;50.672;7.164;2022-12-07T08:17:12;100859.09;;;5.89;100.00
38054;BME280;23859;50.672;7.164;2022-12-07T08:19:38;100856.50;;;6.01;100.00
38054;BME280;23859;50.672;7.164;2022-12-07T08:22:05;100853.94;;;5.99;100.00
38054;BME280;23859;50.672;7.164;2022-12-07T08:24:34;100856.78;;;6.35;100.00
38054;BME280;23859;50.672;7.164;2022-12-07T08:27:00;100858.38;;;6.25;100.00
38054;BME280;23859;50.672;7.164;2022-12-07T08:29:26;100853.00;;;6.00;100.00
38054;BME280;23859;50.672;7.164;2022-12-07T08:31:52;100857.06;;;6.06;100.00
38054;BME280;23859;50.672;7.164;2022-12-07T08:34:18;100851.91;;;6.17;100.00
38054;BME280;23859;50.672;7.164;2022-12-07T08:36:44;100854.72;;;6.14;100.00
38054;BME280;23859;50.672;7.164;2022-12-07T08:39:10;100854.31;;;6.07;100.00
38054;BME280;23859;50.672;7.164;2022-12-07T08:41:36;100850.94;;;6.18;100.00
38054;BME280;23859;50.672;7.164;2022-12-07T08:44:03;100859.81;;;6.17;100.00
38054;BME280;23859;50.672;7.164;2022-12-07T08:49:05;100861.63;;;6.29;100.00
38054;BME280;23859;50.672;7.164;2022-12-07T08:51:33;100857.75;;;6.47;100.00
38054;BME280;23859;50.672;7.164;2022-12-07T08:54:00;100857.53;;;6.50;100.00
38054;BME280;23859;50.672;7.164;2022-12-07T08:56:27;100851.63;;;6.46;100.00
38054;BME280;23859;50.672;7.164;2022-12-07T08:58:54;100848.03;;;6.47;100.00
38054;BME280;23859;50.672;7.164;2022-12-07T09:01:20;100854.50;;;6.68;100.00
38054;BME280;23859;50.672;7.164;2022-12-07T09:03:46;100848.88;;;6.72;100.00
38054;BME280;23859;50.672;7.164;2022-12-07T09:06:12;100858.06;;;6.79;100.00
38054;BME280;23859;50.672;7.164;2022-12-07T09:08:41;100855.97;;;6.60;100.00
38054;BME280;23859;50.672;7.164;2022-12-07T09:11:09;100854.78;;;6.63;100.00
38054;BME280;23859;50.672;7.164;2022-12-07T09:13:35;100858.72;;;6.70;100.00
38054;BME280;23859;50.672;7.164;2022-12-07T09:16:02;100858.06;;;6.55;100.00
38054;BME280;23859;50.672;7.164;2022-12-07T09:18:28;100853.72;;;6.78;100.00
38054;BME280;23859;50.672;7.164;2022-12-07T09:20:55;100856.59;;;6.75;100.00
38054;BME280;23859;50.672;7.164;2022-12-07T09:23:21;100765.25;;;5.98;100.00
38054;BME280;23859;50.672;7.164;2022-12-07T09:25:47;100859.00;;;6.78;100.00
38054;BME280;23859;50.672;7.164;2022-12-07T09:28:14;100860.81;;;6.90;100.00
38054;BME280;23859;50.672;7.164;2022-12-07T09:30:48;100861.94;;;7.11;100.00
38054;BME280;23859;50.672;7.164;2022-12-07T09:33:15;100861.28;;;7.20;100.00
38054;BME280;23859;50.672;7.164;2022-12-07T09:35:45;100850.34;;;7.73;100.00
38054;BME280;23859;50.672;7.164;2022-12-07T09:38:11;100855.88;;;8.04;100.00
38054;BME280;23859;50.672;7.164;2022-12-07T09:40:38;100847.81;;;8.18;98.87
38054;BME280;23859;50.672;7.164;2022-12-07T09:43:04;100849.88;;;8.25;100.00
38054;BME280;23859;50.672;7.164;2022-12-07T09:45:34;100853.13;;;8.05;100.00
38054;BME280;23859;50.672;7.164;2022-12-07T09:48:02;100849.09;;;7.89;100.00
38054;BME280;23859;50.672;7.164;2022-12-07T09:50:29;100849.72;;;7.69;100.00
38054;BME280;23859;50.672;7.164;2022-12-07T09:53:08;100851.72;;;7.89;100.00
38054;BME280;23859;50.672;7.164;2022-12-07T09:55:36;100846.00;;;7.95;100.00
38054;BME280;23859;50.672;7.164;2022-12-07T09:58:04;100841.31;;;7.98;100.00
38054;BME280;23859;50.672;7.164;2022-12-07T10:00:30;100839.38;;;8.00;100.00
38054;BME280;23859;50.672;7.164;2022-12-07T10:03:00;100843.75;;;7.55;100.00
38054;BME280;23859;50.672;7.164;2022-12-07T10:05:31;100848.19;;;7.78;100.00
38054;BME280;23859;50.672;7.164;2022-12-07T10:07:59;100838.22;;;7.81;100.00
38054;BME280;23859;50.672;7.164;2022-12-07T10:10:31;100854.22;;;7.80;100.00
38054;BME280;23859;50.672;7.164;2022-12-07T10:15:56;100833.97;;;7.91;100.00
38054;BME280;23859;50.672;7.164;2022-12-07T10:21:19;100834.19;;;7.65;100.00
38054;BME280;23859;50.672;7.164;2022-12-07T10:24:08;100829.63;;;7.67;100.00
38054;BME280;23859;50.672;7.164;2022-12-07T10:26:52;100828.94;;;7.76;100.00
38054;BME280;23859;50.672;7.164;2022-12-07T10:29:30;100817.16;;;7.80;100.00
38054;BME280;23859;50.672;7.164;2022-12-07T10:32:02;100819.91;;;8.36;100.00
38054;BME280;23859;50.672;7.164;2022-12-07T10:34:37;100819.84;;;8.70;96.92
38054;BME280;23859;50.672;7.164;2022-12-07T10:39:50;100806.22;;;9.71;93.30
38054;BME280;23859;50.672;7.164;2022-12-07T10:42:23;100803.28;;;9.43;90.03
38054;BME280;23859;50.672;7.164;2022-12-07T10:47:48;100797.66;;;9.26;92.40
38054;BME280;23859;50.672;7.164;2022-12-07T10:53:28;100792.72;;;9.21;92.07
38054;BME280;23859;50.672;7.164;2022-12-07T10:56:05;100796.25;;;9.22;90.49
38054;BME280;23859;50.672;7.164;2022-12-07T11:07:10;100783.63;;;8.92;91.90
38054;BME280;23859;50.672;7.164;2022-12-07T11:10:05;100777.22;;;8.95;93.72
38054;BME280;23859;50.672;7.164;2022-12-07T11:15:39;100765.78;;;10.10;86.74
38054;BME280;23859;50.672;7.164;2022-12-07T11:21:04;100766.09;;;10.37;83.57
38054;BME280;23859;50.672;7.164;2022-12-07T11:29:11;100745.38;;;12.14;76.46
38054;BME280;23859;50.672;7.164;2022-12-07T11:32:04;100748.34;;;12.11;75.44
38054;BME280;23859;50.672;7.164;2022-12-07T11:35:24;100745.91;;;11.42;78.70
38054;BME280;23859;50.672;7.164;2022-12-07T11:37:35;100744.53;;;10.90;78.96
38054;BME280;23859;50.672;7.164;2022-12-07T11:40:20;100745.34;;;10.31;83.43
38054;BME280;23859;50.672;7.164;2022-12-07T11:42:58;100738.63;;;10.57;83.47
38054;BME280;23859;50.672;7.164;2022-12-07T11:45:32;100731.91;;;11.50;80.30
38054;BME280;23859;50.672;7.164;2022-12-07T11:48:11;100727.78;;;11.08;79.24
38054;BME280;23859;50.672;7.164;2022-12-07T11:50:46;100738.09;;;10.62;78.11
38054;BME280;23859;50.672;7.164;2022-12-07T11:53:24;100725.72;;;10.43;80.20
38054;BME280;23859;50.672;7.164;2022-12-07T12:06:28;100714.41;;;12.50;73.00
38054;BME280;23859;50.672;7.164;2022-12-07T12:12:02;100710.63;;;11.78;75.48
38054;BME280;23859;50.672;7.164;2022-12-07T12:14:46;100721.00;;;11.53;73.13
38054;BME280;23859;50.672;7.164;2022-12-07T12:17:25;100715.34;;;11.18;75.88
38054;BME280;23859;50.672;7.164;2022-12-07T12:20:19;100690.94;;;10.46;77.64
38054;BME280;23859;50.672;7.164;2022-12-07T12:22:58;100708.78;;;10.64;79.11
38054;BME280;23859;50.672;7.164;2022-12-07T12:25:28;100712.50;;;10.02;79.30
38054;BME280;23859;50.672;7.164;2022-12-07T12:27:58;100707.84;;;9.63;81.20
38054;BME280;23859;50.672;7.164;2022-12-07T12:30:37;100707.47;;;9.36;82.53
38054;BME280;23859;50.672;7.164;2022-12-07T12:33:16;100702.19;;;10.08;79.33
38054;BME280;23859;50.672;7.164;2022-12-07T12:35:46;100702.28;;;9.66;81.16
38054;BME280;23859;50.672;7.164;2022-12-07T12:44:02;100692.06;;;9.30;84.14
38054;BME280;23859;50.672;7.164;2022-12-07T12:49:35;100694.63;;;8.90;86.80
38054;BME280;23859;50.672;7.164;2022-12-07T12:57:35;100707.28;;;8.32;90.56
38054;BME280;23859;50.672;7.164;2022-12-07T13:00:22;100670.78;;;8.02;88.61
38054;BME280;23859;50.672;7.164;2022-12-07T13:02:55;100700.84;;;8.12;89.41
38054;BME280;23859;50.672;7.164;2022-12-07T13:05:27;100709.84;;;7.99;92.19
38054;BME280;23859;50.672;7.164;2022-12-07T13:08:01;100708.78;;;8.01;93.61
38054;BME280;23859;50.672;7.164;2022-12-07T13:13:02;100698.44;;;7.98;92.14
38054;BME280;23859;50.672;7.164;2022-12-07T13:21:38;100698.06;;;7.92;93.60
38054;BME280;23859;50.672;7.164;2022-12-07T13:28:51;100702.00;;;8.21;90.94
38054;BME280;23859;50.672;7.164;2022-12-07T13:33:49;100704.06;;;7.83;93.42
38054;BME280;23859;50.672;7.164;2022-12-07T13:36:37;100705.19;;;8.02;90.94
38054;BME280;23859;50.672;7.164;2022-12-07T13:39:24;100702.47;;;7.70;93.88
38054;BME280;23859;50.672;7.164;2022-12-07T13:42:06;100696.88;;;7.51;97.40
38054;BME280;23859;50.672;7.164;2022-12-07T13:44:39;100692.00;;;7.34;99.52
38054;BME280;23859;50.672;7.164;2022-12-07T13:47:28;100686.47;;;7.37;100.00
38054;BME280;23859;50.672;7.164;2022-12-07T13:49:58;100686.88;;;7.78;98.54
38054;BME280;23859;50.672;7.164;2022-12-07T13:52:29;100592.50;;;7.22;100.00
38054;BME280;23859;50.672;7.164;2022-12-07T13:57:33;100686.41;;;7.84;100.00
38054;BME280;23859;50.672;7.164;2022-12-07T14:00:03;100677.97;;;7.90;99.82
38054;BME280;23859;50.672;7.164;2022-12-07T14:02:32;100679.66;;;7.91;98.41
38054;BME280;23859;50.672;7.164;2022-12-07T14:05:16;100677.59;;;7.83;99.59
38054;BME280;23859;50.672;7.164;2022-12-07T14:08:03;100665.59;;;7.90;97.10
38054;BME280;23859;50.672;7.164;2022-12-07T14:10:32;100676.31;;;7.89;96.77
38054;BME280;23859;50.672;7.164;2022-12-07T14:12:59;100666.03;;;7.62;98.50
38054;BME280;23859;50.672;7.164;2022-12-07T14:15:35;100683.09;;;7.58;99.86
38054;BME280;23859;50.672;7.164;2022-12-07T14:18:03;100684.94;;;7.45;100.00
38054;BME280;23859;50.672;7.164;2022-12-07T14:20:35;100679.03;;;7.08;100.00
38054;BME280;23859;50.672;7.164;2022-12-07T14:23:03;100670.22;;;6.96;100.00
38054;BME280;23859;50.672;7.164;2022-12-07T14:25:46;100669.34;;;6.96;100.00
38054;BME280;23859;50.672;7.164;2022-12-07T14:28:32;100654.50;;;6.82;100.00
38054;BME280;23859;50.672;7.164;2022-12-07T14:31:00;100668.56;;;6.83;100.00
38054;BME280;23859;50.672;7.164;2022-12-07T14:33:26;100661.41;;;6.72;100.00
38054;BME280;23859;50.672;7.164;2022-12-07T14:35:53;100669.13;;;6.75;100.00
38054;BME280;23859;50.672;7.164;2022-12-07T14:38:21;100659.78;;;6.82;100.00
38054;BME280;23859;50.672;7.164;2022-12-07T14:40:48;100661.84;;;6.79;100.00
38054;BME280;23859;50.672;7.164;2022-12-07T14:43:18;100660.28;;;6.64;100.00
38054;BME280;23859;50.672;7.164;2022-12-07T14:45:44;100659.59;;;6.50;100.00
38054;BME280;23859;50.672;7.164;2022-12-07T14:48:12;100659.38;;;6.53;100.00
38054;BME280;23859;50.672;7.164;2022-12-07T14:50:42;100654.59;;;6.58;100.00
38054;BME280;23859;50.672;7.164;2022-12-07T14:53:33;100657.56;;;6.65;100.00